createdAt,value
2018-12-05T00:02:47.339Z,491.30
2018-12-05T00:05:45.148Z,452.85
2018-12-05T00:08:42.460Z,465.98
2018-12-05T00:11:39.551Z,463.90
2018-12-05T00:14:38.045Z,460.65
2018-12-05T00:17:35.542Z,424.58
2018-12-05T00:20:33.293Z,440.50
2018-12-05T00:23:30.571Z,405.83
2018-12-05T00:26:28.843Z,419.80
2018-12-05T00:29:26.311Z,404.75
2018-12-05T00:32:23.622Z,408.83
2018-12-05T00:35:21.297Z,401.25
2018-12-05T00:38:18.537Z,393.77
2018-12-05T00:41:15.745Z,363.57
2018-12-05T00:44:13.416Z,349.37
2018-12-05T00:47:10.382Z,338.40
2018-12-05T00:50:07.610Z,349.27
2018-12-05T00:53:04.896Z,341.73
2018-12-05T00:56:02.809Z,387.05
2018-12-05T00:59:00.256Z,383.35
2018-12-05T01:01:58.266Z,376.25
2018-12-05T01:04:55.633Z,395.23
2018-12-05T01:07:53.584Z,390.52
2018-12-05T01:10:50.802Z,428.58
2018-12-05T01:13:48.046Z,412.77
2018-12-05T01:16:45.376Z,362.52
2018-12-05T01:19:42.756Z,356.87
2018-12-05T01:22:40.073Z,351.00
2018-12-05T01:25:37.498Z,337.60
2018-12-05T01:28:35.204Z,351.92
2018-12-05T01:31:32.693Z,347.17
2018-12-05T01:34:30.541Z,342.10
2018-12-05T01:37:28.328Z,350.35
2018-12-05T01:40:26.385Z,324.65
2018-12-05T01:43:23.900Z,331.90
2018-12-05T01:46:22.302Z,315.70
2018-12-05T01:49:20.143Z,363.10
2018-12-05T01:52:17.292Z,328.18
2018-12-05T01:55:15.583Z,317.60
2018-12-05T01:58:13.024Z,302.13
2018-12-05T02:01:11.380Z,315.55
2018-12-05T02:04:08.775Z,311.55
2018-12-05T02:07:06.010Z,296.25
2018-12-05T02:10:04.094Z,306.27
2018-12-05T02:13:01.736Z,297.23
2018-12-05T02:15:59.140Z,307.73
2018-12-05T02:18:56.437Z,314.05
2018-12-05T02:21:54.180Z,318.97
2018-12-05T02:24:52.074Z,308.38
2018-12-05T02:27:49.425Z,311.62
2018-12-05T02:30:46.918Z,307.70
2018-12-05T02:33:44.531Z,325.98
2018-12-05T02:36:41.774Z,275.68
2018-12-05T02:39:38.996Z,279.80
2018-12-05T02:42:36.960Z,277.50
2018-12-05T02:45:35.615Z,274.88
2018-12-05T02:48:33.979Z,278.83
2018-12-05T02:51:31.504Z,307.07
2018-12-05T02:54:29.372Z,299.65
2018-12-05T02:57:26.815Z,291.02
2018-12-05T03:00:24.516Z,299.77
2018-12-05T03:03:22.331Z,303.35
2018-12-05T03:06:22.534Z,283.47
2018-12-05T03:09:20.366Z,272.07
2018-12-05T03:12:18.054Z,275.10
2018-12-05T03:15:15.810Z,284.00
2018-12-05T03:18:13.800Z,278.77
2018-12-05T03:21:11.316Z,298.93
2018-12-05T03:24:09.405Z,375.57
2018-12-05T03:27:06.457Z,274.32
2018-12-05T03:30:03.552Z,260.73
2018-12-05T03:33:01.389Z,303.35
2018-12-05T03:35:59.581Z,255.22
2018-12-05T03:38:57.554Z,261.43
2018-12-05T03:41:55.810Z,254.43
2018-12-05T03:44:53.358Z,244.70
2018-12-05T03:47:51.672Z,249.27
2018-12-05T03:50:50.781Z,230.00
2018-12-05T03:53:48.904Z,232.50
2018-12-05T03:56:46.356Z,232.95
2018-12-05T03:59:43.742Z,232.37
2018-12-05T04:02:41.357Z,226.47
2018-12-05T04:05:39.036Z,814.95
2018-12-05T04:08:36.107Z,273.43
2018-12-05T04:11:34.119Z,223.68
2018-12-05T04:14:32.194Z,215.35
2018-12-05T04:17:29.922Z,227.93
2018-12-05T04:20:27.089Z,236.12
2018-12-05T04:23:25.360Z,261.68
2018-12-05T04:26:21.934Z,254.10
2018-12-05T04:29:19.027Z,247.40
2018-12-05T04:32:15.935Z,259.05
2018-12-05T04:35:12.817Z,272.17
2018-12-05T04:38:10.268Z,262.52
2018-12-05T04:41:07.431Z,248.30
2018-12-05T04:44:04.356Z,259.65
2018-12-05T04:47:00.847Z,243.82
2018-12-05T04:49:56.943Z,228.10
2018-12-05T04:52:55.684Z,258.65
2018-12-05T04:55:51.956Z,245.63
2018-12-05T04:58:48.910Z,273.65
2018-12-05T05:01:45.764Z,245.97
2018-12-05T05:04:41.997Z,268.27
2018-12-05T05:07:38.736Z,279.23
2018-12-05T05:10:41.514Z,260.08
2018-12-05T05:13:46.470Z,236.82
2018-12-05T05:22:12.955Z,235.60
2018-12-05T05:25:41.882Z,238.00
2018-12-05T05:28:49.375Z,270.93
2018-12-05T05:32:04.306Z,236.18
2018-12-05T05:35:21.388Z,229.03
2018-12-05T05:38:36.537Z,220.05
2018-12-05T05:41:37.760Z,211.12
2018-12-05T05:44:45.964Z,227.65
2018-12-05T05:47:53.747Z,219.40
2018-12-05T05:50:58.894Z,204.82
2018-12-05T05:54:06.221Z,225.97
2018-12-05T05:57:13.990Z,214.45
2018-12-05T06:00:20.314Z,184.37
2018-12-05T06:07:06.629Z,217.77
2018-12-05T06:17:57.895Z,192.55
2018-12-05T06:20:58.424Z,176.82
2018-12-05T06:24:06.329Z,178.87
2018-12-05T06:27:25.824Z,158.20
2018-12-05T06:30:31.462Z,172.98
2018-12-05T06:35:39.330Z,171.50
2018-12-05T06:37:21.229Z,189.77
2018-12-05T06:40:23.289Z,197.65
2018-12-05T06:43:25.407Z,187.35
2018-12-05T06:46:29.951Z,185.73
2018-12-05T06:49:39.827Z,189.07
2018-12-05T06:52:42.452Z,179.70
2018-12-05T06:55:40.449Z,187.65
2018-12-05T06:59:00.562Z,172.62
2018-12-05T07:02:01.509Z,180.75
2018-12-05T07:05:07.047Z,173.05
2018-12-05T07:08:05.326Z,182.00
2018-12-05T07:11:02.933Z,185.85
2018-12-05T07:14:03.034Z,171.87
2018-12-05T07:17:00.405Z,171.45
2018-12-05T07:20:19.296Z,172.30
2018-12-05T07:23:21.025Z,180.70
2018-12-05T07:26:19.140Z,200.25
2018-12-05T07:29:18.260Z,193.65
2018-12-05T07:32:19.450Z,196.63
2018-12-05T07:35:24.789Z,182.93
2018-12-05T07:38:49.254Z,198.00
2018-12-05T07:42:03.072Z,172.00
2018-12-05T07:45:15.436Z,183.95
2018-12-05T07:48:17.918Z,171.13
2018-12-05T07:51:26.247Z,196.18
2018-12-05T07:54:32.840Z,191.20
2018-12-05T07:57:40.261Z,174.38
2018-12-05T08:03:02.223Z,200.43
2018-12-05T08:04:17.151Z,187.95
2018-12-05T08:08:09.874Z,182.62
2018-12-05T08:11:22.444Z,170.60
2018-12-05T08:14:28.044Z,195.18
2018-12-05T08:17:24.740Z,197.53
2018-12-05T08:20:31.101Z,185.88
2018-12-05T08:23:46.970Z,173.97
2018-12-05T08:26:44.574Z,189.55
2018-12-05T08:29:47.327Z,184.65
2018-12-05T08:32:49.132Z,184.93
2018-12-05T08:36:10.232Z,200.78
2018-12-05T08:39:11.716Z,191.35
2018-12-05T08:42:16.730Z,198.65
2018-12-05T08:48:32.485Z,176.87
2018-12-05T08:51:35.095Z,198.30
2018-12-05T08:54:31.196Z,193.35
2018-12-05T08:57:30.997Z,205.22
2018-12-05T09:00:24.836Z,194.40
2018-12-05T09:03:22.662Z,207.95
2018-12-05T09:06:42.039Z,219.93
2018-12-05T09:09:45.878Z,197.80
2018-12-05T09:12:53.556Z,214.15
2018-12-05T09:15:55.341Z,221.05
2018-12-05T09:19:23.490Z,225.82
2018-12-05T09:22:28.522Z,199.93
2018-12-05T09:25:38.630Z,213.37
2018-12-05T09:28:43.613Z,211.37
2018-12-05T09:32:15.114Z,190.60
2018-12-05T09:39:10.556Z,190.53
2018-12-05T09:42:01.377Z,194.35
2018-12-05T09:45:13.970Z,192.77
2018-12-05T09:48:30.730Z,178.95
2018-12-05T09:51:36.826Z,212.05
2018-12-05T09:54:45.374Z,192.90
2018-12-05T09:57:42.862Z,185.03
2018-12-05T10:01:05.135Z,183.52
2018-12-05T10:04:08.066Z,156.80
2018-12-05T10:07:23.985Z,189.40
2018-12-05T10:13:38.074Z,188.50
2018-12-05T10:16:45.831Z,184.90
2018-12-05T10:19:55.223Z,181.25
2018-12-05T10:23:01.635Z,190.55
2018-12-05T10:26:08.642Z,183.12
2018-12-05T10:29:45.842Z,169.97
2018-12-05T10:32:45.765Z,189.03
2018-12-05T10:35:54.750Z,188.47
2018-12-05T10:39:01.029Z,170.68
2018-12-05T10:42:05.761Z,179.42
2018-12-05T10:45:11.497Z,177.68
2018-12-05T10:48:16.785Z,199.25
2018-12-05T10:51:19.177Z,177.70
2018-12-05T10:54:23.785Z,185.78
2018-12-05T10:57:25.931Z,186.82
2018-12-05T11:00:43.414Z,205.32
2018-12-05T11:03:54.595Z,204.18
2018-12-05T11:07:12.010Z,190.12
2018-12-05T11:10:32.299Z,185.93
2018-12-05T11:13:54.047Z,189.65
2018-12-05T11:17:19.151Z,210.68
2018-12-05T11:21:00.792Z,175.27
2018-12-05T11:24:22.468Z,191.12
2018-12-05T11:27:20.275Z,200.78
2018-12-05T11:30:23.109Z,201.07
2018-12-05T11:33:18.251Z,231.32
2018-12-05T11:36:20.516Z,199.72
2018-12-05T11:39:18.930Z,208.53
2018-12-05T11:42:16.999Z,220.35
2018-12-05T11:45:14.899Z,218.45
2018-12-05T11:48:10.646Z,219.68
2018-12-05T11:51:07.545Z,258.75
2018-12-05T11:54:06.616Z,252.90
2018-12-05T11:57:02.567Z,252.70
2018-12-05T11:59:58.909Z,249.90
2018-12-05T12:03:09.469Z,253.67
2018-12-05T12:06:05.895Z,271.00
2018-12-05T12:09:01.913Z,272.25
2018-12-05T12:11:58.750Z,260.02
2018-12-05T12:14:54.835Z,270.85
2018-12-05T12:17:50.809Z,298.23
2018-12-05T12:20:47.495Z,293.52
2018-12-05T12:23:43.634Z,289.98
2018-12-05T12:26:39.781Z,299.35
2018-12-05T12:29:42.955Z,270.80
2018-12-05T12:32:42.206Z,310.20
2018-12-05T12:35:39.384Z,313.23
2018-12-05T12:38:35.596Z,328.83
2018-12-05T12:41:31.661Z,311.50
2018-12-05T12:44:27.393Z,298.85
2018-12-05T12:47:23.597Z,327.05
2018-12-05T12:50:19.366Z,320.95
2018-12-05T12:53:15.167Z,344.52
2018-12-05T12:56:10.704Z,345.65
2018-12-05T12:59:06.325Z,324.32
2018-12-05T13:02:01.826Z,313.40
2018-12-05T13:04:57.719Z,335.10
2018-12-05T13:07:53.326Z,351.18
2018-12-05T13:10:49.392Z,372.60
2018-12-05T13:13:45.442Z,367.30
2018-12-05T13:16:41.931Z,391.32
2018-12-05T13:19:40.306Z,387.98
2018-12-05T13:22:33.543Z,360.05
2018-12-05T13:25:29.448Z,332.45
2018-12-05T13:28:25.948Z,379.52
2018-12-05T13:31:23.603Z,361.55
2018-12-05T13:34:23.543Z,346.85
2018-12-05T13:37:20.085Z,360.82
2018-12-05T13:40:19.046Z,354.15
2018-12-05T13:43:14.869Z,380.92
2018-12-05T13:46:11.132Z,372.67
2018-12-05T13:49:06.966Z,417.53
2018-12-05T13:52:16.085Z,392.60
2018-12-05T13:55:12.166Z,419.25
2018-12-05T13:58:07.794Z,416.30
2018-12-05T14:01:04.306Z,448.97
2018-12-05T14:04:00.140Z,446.63
2018-12-05T14:06:55.541Z,405.48
2018-12-05T14:09:58.617Z,406.75
2018-12-05T14:12:55.550Z,419.32
2018-12-05T14:15:50.929Z,434.65
2018-12-05T14:18:46.741Z,443.37
2018-12-05T14:21:42.307Z,443.60
2018-12-05T14:24:37.900Z,423.85
2018-12-05T14:27:33.819Z,456.05
2018-12-05T14:30:32.966Z,415.60
2018-12-05T14:33:29.067Z,432.30
2018-12-05T14:36:24.904Z,439.82
2018-12-05T14:39:20.668Z,449.23
2018-12-05T14:42:17.056Z,441.98
2018-12-05T14:45:13.120Z,473.80
2018-12-05T14:48:08.633Z,478.98
2018-12-05T14:51:04.740Z,489.80
2018-12-05T14:54:00.738Z,481.23
2018-12-05T14:56:56.292Z,466.25
2018-12-05T14:59:51.753Z,499.27
2018-12-05T15:02:47.315Z,510.97
2018-12-05T15:05:42.806Z,488.10
2018-12-05T15:08:38.748Z,469.55
2018-12-05T15:11:34.830Z,481.52
2018-12-05T15:14:30.727Z,491.75
2018-12-05T15:17:26.816Z,473.00
2018-12-05T15:20:22.299Z,485.35
2018-12-05T15:23:18.624Z,487.65
2018-12-05T15:26:15.373Z,472.30
2018-12-05T15:29:11.491Z,476.35
2018-12-05T15:32:07.615Z,474.77
2018-12-05T15:35:04.000Z,462.38
2018-12-05T15:38:00.439Z,445.70
2018-12-05T15:40:56.582Z,452.37
2018-12-05T15:43:53.377Z,443.63
2018-12-05T15:46:50.636Z,433.55
2018-12-05T15:49:46.727Z,438.95
2018-12-05T15:52:43.239Z,439.55
2018-12-05T15:55:40.576Z,425.57
2018-12-05T15:58:37.581Z,427.90
2018-12-05T16:01:33.618Z,424.00
2018-12-05T16:04:30.198Z,441.95
2018-12-05T16:07:26.365Z,415.60
2018-12-05T16:10:22.385Z,408.32
2018-12-05T16:13:18.361Z,418.45
2018-12-05T16:16:14.240Z,410.93
2018-12-05T16:19:13.972Z,407.02
2018-12-05T16:22:06.437Z,432.10
2018-12-05T16:25:02.589Z,404.38
2018-12-05T16:27:58.354Z,393.10
2018-12-05T16:30:54.498Z,383.30
2018-12-05T16:33:50.615Z,389.32
2018-12-05T16:36:47.016Z,356.98
2018-12-05T16:39:43.608Z,354.93
2018-12-05T16:42:40.100Z,370.55
2018-12-05T16:45:38.214Z,359.55
2018-12-05T16:48:36.936Z,331.35
2018-12-05T16:51:33.844Z,341.42
2018-12-05T16:54:30.017Z,326.18
2018-12-05T16:57:29.977Z,330.30
2018-12-05T17:00:28.849Z,330.00
2018-12-05T17:03:26.560Z,311.82
2018-12-05T17:06:23.545Z,323.55
2018-12-05T17:09:26.001Z,338.35
2018-12-05T17:12:16.608Z,332.83
2018-12-05T17:15:12.688Z,336.02
2018-12-05T17:18:08.186Z,338.15
2018-12-05T17:21:04.110Z,349.45
2018-12-05T17:24:00.113Z,322.33
2018-12-05T17:26:59.642Z,343.35
2018-12-05T17:29:52.456Z,351.55
2018-12-05T17:32:48.086Z,353.73
2018-12-05T17:35:44.190Z,354.40
2018-12-05T17:38:40.437Z,382.65
2018-12-05T17:41:36.625Z,363.98
2018-12-05T17:44:32.386Z,370.45
2018-12-05T17:47:31.159Z,356.85
2018-12-05T17:50:26.719Z,354.05
2018-12-05T17:53:22.597Z,371.70
2018-12-05T17:56:18.434Z,344.02
2018-12-05T17:59:14.264Z,358.60
2018-12-05T18:02:09.982Z,364.48
2018-12-05T18:05:14.864Z,371.27
2018-12-05T18:08:18.812Z,371.87
2018-12-05T18:11:14.437Z,373.77
2018-12-05T18:14:10.872Z,347.98
2018-12-05T18:17:06.529Z,369.87
2018-12-05T18:20:02.218Z,373.25
2018-12-05T18:22:57.760Z,374.60
2018-12-05T18:25:53.782Z,383.65
2018-12-05T18:28:49.704Z,369.52
2018-12-05T18:31:45.128Z,397.37
2018-12-05T18:34:40.638Z,376.23
2018-12-05T18:37:36.385Z,374.92
2018-12-05T18:40:31.969Z,399.98
2018-12-05T18:43:27.802Z,404.55
2018-12-05T18:46:23.473Z,401.00
2018-12-05T18:49:19.539Z,400.48
2018-12-05T18:52:15.411Z,405.30
2018-12-05T18:55:11.510Z,414.95
2018-12-05T18:58:07.242Z,388.85
2018-12-05T19:01:02.970Z,385.02
2018-12-05T19:03:58.645Z,405.30
2018-12-05T19:06:54.312Z,389.32
2018-12-05T19:09:49.769Z,404.95
2018-12-05T19:12:45.347Z,409.60
2018-12-05T19:15:40.786Z,408.23
2018-12-05T19:18:36.416Z,397.00
2018-12-05T19:21:31.757Z,389.98
2018-12-05T19:24:27.744Z,383.00
2018-12-05T19:27:24.583Z,395.12
2018-12-05T19:30:20.104Z,387.45
2018-12-05T19:33:15.548Z,400.70
2018-12-05T19:36:11.116Z,389.87
2018-12-05T19:39:08.301Z,405.05
2018-12-05T19:42:04.104Z,391.60
2018-12-05T19:44:59.576Z,396.85
2018-12-05T19:47:55.622Z,389.40
2018-12-05T19:50:51.195Z,417.55
2018-12-05T19:53:46.764Z,383.25
2018-12-05T19:56:42.912Z,387.48
2018-12-05T19:59:38.935Z,400.87
2018-12-05T20:02:35.068Z,395.00
2018-12-05T20:05:30.945Z,400.77
2018-12-05T20:08:26.637Z,433.23
2018-12-05T20:11:22.251Z,413.22
2018-12-05T20:14:33.365Z,430.80
2018-12-05T20:17:28.824Z,400.02
2018-12-05T20:20:25.008Z,420.32
2018-12-05T20:23:20.477Z,417.05
2018-12-05T20:26:15.829Z,426.77
2018-12-05T20:29:11.274Z,410.40
2018-12-05T20:32:07.158Z,415.92
2018-12-05T20:35:03.206Z,426.82
2018-12-05T20:37:59.040Z,430.30
2018-12-05T20:40:54.681Z,422.65
2018-12-05T20:43:50.233Z,403.62
2018-12-05T20:46:46.015Z,410.87
2018-12-05T20:49:41.793Z,412.92
2018-12-05T20:52:37.581Z,396.07
2018-12-05T20:55:33.360Z,405.87
2018-12-05T20:58:29.245Z,434.52
2018-12-05T21:01:25.028Z,430.05
2018-12-05T21:04:20.624Z,456.63
2018-12-05T21:07:16.178Z,475.22
2018-12-05T21:10:14.720Z,500.45
2018-12-05T21:13:10.861Z,457.47
2018-12-05T21:16:06.546Z,527.50
2018-12-05T21:19:01.915Z,501.00
2018-12-05T21:21:58.368Z,490.32
2018-12-05T21:24:53.706Z,462.15
2018-12-05T21:27:52.100Z,458.57
2018-12-05T21:30:47.898Z,455.45
2018-12-05T21:33:46.410Z,466.92
2018-12-05T21:36:41.974Z,440.20
2018-12-05T21:39:37.822Z,456.95
2018-12-05T21:42:33.210Z,476.90
2018-12-05T21:45:28.678Z,492.45
2018-12-05T21:48:24.274Z,496.95
2018-12-05T21:51:19.840Z,501.85
2018-12-05T21:54:15.210Z,542.35
2018-12-05T21:57:10.906Z,535.20
2018-12-05T22:00:06.962Z,538.65
2018-12-05T22:03:02.461Z,522.75
2018-12-05T22:05:58.029Z,505.63
2018-12-05T22:08:53.556Z,519.67
2018-12-05T22:11:49.332Z,498.10
2018-12-05T22:14:45.178Z,475.10
2018-12-05T22:17:40.743Z,478.45
2018-12-05T22:20:36.236Z,478.30
2018-12-05T22:23:31.840Z,451.95
2018-12-05T22:26:27.274Z,467.40
2018-12-05T22:29:22.928Z,462.02
2018-12-05T22:32:18.829Z,460.43
2018-12-05T22:35:13.090Z,490.85
2018-12-05T22:38:08.683Z,473.30
2018-12-05T22:41:05.372Z,453.58
2018-12-05T22:44:01.012Z,424.38
2018-12-05T22:46:56.440Z,425.35
2018-12-05T22:49:51.890Z,433.85
2018-12-05T22:52:47.505Z,424.27
2018-12-05T22:55:43.047Z,429.62
2018-12-05T22:58:38.566Z,420.75
2018-12-05T23:01:34.123Z,407.30
2018-12-05T23:04:30.529Z,431.93
2018-12-05T23:07:26.381Z,416.70
2018-12-05T23:10:22.156Z,424.38
2018-12-05T23:13:17.619Z,435.70
2018-12-05T23:16:13.133Z,436.68
2018-12-05T23:19:08.704Z,433.72
2018-12-05T23:22:03.953Z,448.47
2018-12-05T23:24:59.481Z,456.87
2018-12-05T23:27:54.946Z,448.10
2018-12-05T23:30:50.458Z,434.48
2018-12-05T23:33:46.236Z,426.13
2018-12-05T23:36:42.076Z,425.30
2018-12-05T23:39:37.954Z,419.58
2018-12-05T23:42:33.967Z,440.05
2018-12-05T23:45:30.070Z,416.60
2018-12-05T23:48:25.865Z,427.37
2018-12-05T23:51:22.213Z,431.75
2018-12-05T23:54:17.668Z,405.63
2018-12-05T23:57:13.185Z,399.88
